Terminal Aerodrome Forecast
Issued by NWS Boston, MA

Home | Current Version | Previous Version | Text Only | Print | Product List | Glossary On
Versions: 1 2 3 4 5 6 7 8 9 10 11 12 13 14 15 16 17 18 19 20 21 22 23 24 25 26 27 28 29 30 31 32 33 34 35 36 37 38 39 40 41 42 43 44 45 46
961
FTUS41 KBOX 202340
TAFORH
TAF
KORH 202340Z 2100/2124 VRB03KT P6SM OVC020
     FM210500 20004KT 5SM BR BKN015
     FM210800 21005KT 3SM BR VCSH OVC010
     FM211000 22005KT 3SM BR OVC010
     FM211700 26007KT P6SM BKN250=

USA.gov is the U.S. government's official web portal to all federal, state and local government web resources and services.